sensor_id;sensor_type;location;lat;lon;timestamp;pressure;altitude;pressure_sealevel;temperature;humidity
20909;BME280;10614;53.198;6.570;2023-06-22T00:01:11;101927.94;;;19.63;100.00
20909;BME280;10614;53.198;6.570;2023-06-22T00:03:18;102031.19;;;20.22;100.00
20909;BME280;10614;53.198;6.570;2023-06-22T00:05:21;101978.84;;;19.90;100.00
20909;BME280;10614;53.198;6.570;2023-06-22T00:07:32;102005.78;;;20.01;100.00
20909;BME280;10614;53.198;6.570;2023-06-22T00:09:35;101960.97;;;19.76;100.00
20909;BME280;10614;53.198;6.570;2023-06-22T00:12:20;102033.28;;;20.17;100.00
20909;BME280;10614;53.198;6.570;2023-06-22T00:14:23;101990.41;;;19.90;100.00
20909;BME280;10614;53.198;6.570;2023-06-22T00:16:26;101979.25;;;19.84;100.00
20909;BME280;10614;53.198;6.570;2023-06-22T00:18:53;101971.94;;;19.71;100.00
20909;BME280;10614;53.198;6.570;2023-06-22T00:21:08;101960.44;;;19.55;100.00
20909;BME280;10614;53.198;6.570;2023-06-22T00:23:13;101997.66;;;19.74;100.00
20909;BME280;10614;53.198;6.570;2023-06-22T00:25:17;102032.13;;;19.93;100.00
20909;BME280;10614;53.198;6.570;2023-06-22T00:27:22;101975.53;;;19.56;100.00
20909;BME280;10614;53.198;6.570;2023-06-22T00:29:50;102033.16;;;19.90;100.00
20909;BME280;10614;53.198;6.570;2023-06-22T00:31:53;101967.22;;;19.46;100.00
20909;BME280;10614;53.198;6.570;2023-06-22T00:34:02;101963.34;;;19.36;100.00
20909;BME280;10614;53.198;6.570;2023-06-22T00:36:13;102005.94;;;19.53;100.00
20909;BME280;10614;53.198;6.570;2023-06-22T00:38:58;101953.41;;;19.24;100.00
20909;BME280;10614;53.198;6.570;2023-06-22T00:41:00;101974.81;;;19.38;100.00
20909;BME280;10614;53.198;6.570;2023-06-22T00:43:04;102006.88;;;19.52;100.00
20909;BME280;10614;53.198;6.570;2023-06-22T00:48:08;101979.63;;;19.31;100.00
20909;BME280;10614;53.198;6.570;2023-06-22T00:50:43;102026.47;;;19.53;100.00
20909;BME280;10614;53.198;6.570;2023-06-22T00:52:46;102001.41;;;19.39;100.00
20909;BME280;10614;53.198;6.570;2023-06-22T00:54:57;101978.28;;;19.24;100.00
20909;BME280;10614;53.198;6.570;2023-06-22T00:57:04;102044.00;;;19.57;100.00
20909;BME280;10614;53.198;6.570;2023-06-22T00:59:24;102014.25;;;19.33;100.00
20909;BME280;10614;53.198;6.570;2023-06-22T01:01:28;102045.16;;;19.53;100.00
20909;BME280;10614;53.198;6.570;2023-06-22T01:04:06;101927.81;;;18.73;100.00
20909;BME280;10614;53.198;6.570;2023-06-22T01:06:21;101975.94;;;19.04;100.00
20909;BME280;10614;53.198;6.570;2023-06-22T01:08:35;102010.50;;;19.21;100.00
20909;BME280;10614;53.198;6.570;2023-06-22T01:11:09;101959.94;;;18.88;100.00
20909;BME280;10614;53.198;6.570;2023-06-22T01:13:25;101941.88;;;18.77;100.00
20909;BME280;10614;53.198;6.570;2023-06-22T01:16:00;101945.31;;;18.79;100.00
20909;BME280;10614;53.198;6.570;2023-06-22T01:18:14;101954.78;;;18.85;100.00
20909;BME280;10614;53.198;6.570;2023-06-22T01:20:27;102036.84;;;19.27;100.00
20909;BME280;10614;53.198;6.570;2023-06-22T01:23:09;102031.66;;;19.24;100.00
20909;BME280;10614;53.198;6.570;2023-06-22T01:25:56;101929.53;;;18.59;100.00
20909;BME280;10614;53.198;6.570;2023-06-22T01:28:20;102032.97;;;19.17;100.00
20909;BME280;10614;53.198;6.570;2023-06-22T01:30:34;101934.00;;;18.58;100.00
20909;BME280;10614;53.198;6.570;2023-06-22T01:32:46;101929.13;;;18.50;100.00
20909;BME280;10614;53.198;6.570;2023-06-22T01:35:12;101932.72;;;18.49;100.00
20909;BME280;10614;53.198;6.570;2023-06-22T01:37:54;101928.69;;;18.42;100.00
20909;BME280;10614;53.198;6.570;2023-06-22T01:40:13;101988.75;;;18.81;100.00
20909;BME280;10614;53.198;6.570;2023-06-22T01:42:19;101945.38;;;18.46;100.00
20909;BME280;10614;53.198;6.570;2023-06-22T01:44:23;102004.84;;;18.80;100.00
20909;BME280;10614;53.198;6.570;2023-06-22T01:49:15;102021.03;;;18.92;100.00
20909;BME280;10614;53.198;6.570;2023-06-22T01:51:27;101960.16;;;18.51;100.00
20909;BME280;10614;53.198;6.570;2023-06-22T01:53:29;101957.34;;;18.54;100.00
20909;BME280;10614;53.198;6.570;2023-06-22T01:55:31;101937.47;;;18.44;100.00
20909;BME280;10614;53.198;6.570;2023-06-22T01:57:57;102011.47;;;18.88;100.00
20909;BME280;10614;53.198;6.570;2023-06-22T02:05:33;102011.75;;;18.84;100.00
20909;BME280;10614;53.198;6.570;2023-06-22T02:07:47;101965.66;;;18.48;100.00
20909;BME280;10614;53.198;6.570;2023-06-22T02:10:06;101977.63;;;18.57;100.00
20909;BME280;10614;53.198;6.570;2023-06-22T02:14:51;101918.19;;;18.23;100.00
20909;BME280;10614;53.198;6.570;2023-06-22T02:17:37;101978.41;;;18.59;100.00
20909;BME280;10614;53.198;6.570;2023-06-22T02:20:22;102018.97;;;18.82;100.00
20909;BME280;10614;53.198;6.570;2023-06-22T02:25:33;102023.69;;;18.76;100.00
20909;BME280;10614;53.198;6.570;2023-06-22T02:28:05;101897.53;;;18.11;100.00
20909;BME280;10614;53.198;6.570;2023-06-22T02:30:27;101978.75;;;18.53;100.00
20909;BME280;10614;53.198;6.570;2023-06-22T02:38:54;101932.19;;;18.11;100.00
20909;BME280;10614;53.198;6.570;2023-06-22T02:41:22;102002.81;;;18.51;100.00
20909;BME280;10614;53.198;6.570;2023-06-22T02:43:41;101991.88;;;18.40;100.00
20909;BME280;10614;53.198;6.570;2023-06-22T02:45:47;102009.13;;;18.50;100.00
20909;BME280;10614;53.198;6.570;2023-06-22T02:48:03;102000.22;;;18.34;100.00
20909;BME280;10614;53.198;6.570;2023-06-22T02:50:19;101994.19;;;18.30;100.00
20909;BME280;10614;53.198;6.570;2023-06-22T02:52:45;101917.78;;;17.82;100.00
20909;BME280;10614;53.198;6.570;2023-06-22T02:55:31;101902.16;;;17.74;100.00
20909;BME280;10614;53.198;6.570;2023-06-22T02:57:59;101978.00;;;18.18;100.00
20909;BME280;10614;53.198;6.570;2023-06-22T03:00:26;101948.22;;;17.93;100.00
20909;BME280;10614;53.198;6.570;2023-06-22T03:05:48;101979.44;;;18.07;100.00
20909;BME280;10614;53.198;6.570;2023-06-22T03:07:58;102003.09;;;18.13;100.00
20909;BME280;10614;53.198;6.570;2023-06-22T03:13:00;101918.84;;;17.60;100.00
20909;BME280;10614;53.198;6.570;2023-06-22T03:15:34;101955.94;;;17.82;100.00
20909;BME280;10614;53.198;6.570;2023-06-22T03:18:02;102015.94;;;18.23;100.00
20909;BME280;10614;53.198;6.570;2023-06-22T03:20:08;101922.16;;;17.65;100.00
20909;BME280;10614;53.198;6.570;2023-06-22T03:22:12;101965.31;;;17.89;100.00
20909;BME280;10614;53.198;6.570;2023-06-22T03:24:28;102013.50;;;18.18;100.00
20909;BME280;10614;53.198;6.570;2023-06-22T03:26:48;101956.91;;;17.80;100.00
20909;BME280;10614;53.198;6.570;2023-06-22T03:29:01;101990.38;;;18.03;100.00
20909;BME280;10614;53.198;6.570;2023-06-22T03:31:33;102012.84;;;18.14;100.00
20909;BME280;10614;53.198;6.570;2023-06-22T03:33:35;101930.91;;;17.67;100.00
20909;BME280;10614;53.198;6.570;2023-06-22T03:35:52;101972.34;;;17.90;100.00
20909;BME280;10614;53.198;6.570;2023-06-22T03:38:00;101904.38;;;17.48;100.00
20909;BME280;10614;53.198;6.570;2023-06-22T03:40:09;101970.03;;;17.84;100.00
20909;BME280;10614;53.198;6.570;2023-06-22T03:42:13;101959.97;;;17.72;100.00
20909;BME280;10614;53.198;6.570;2023-06-22T03:49:50;101971.72;;;17.85;100.00
20909;BME280;10614;53.198;6.570;2023-06-22T03:52:06;101991.91;;;18.07;100.00
20909;BME280;10614;53.198;6.570;2023-06-22T03:54:08;101949.56;;;17.85;100.00
20909;BME280;10614;53.198;6.570;2023-06-22T03:56:10;101937.63;;;17.75;100.00
20909;BME280;10614;53.198;6.570;2023-06-22T03:58:12;101965.84;;;17.96;100.00
20909;BME280;10614;53.198;6.570;2023-06-22T04:00:24;101949.88;;;17.96;100.00
20909;BME280;10614;53.198;6.570;2023-06-22T04:04:51;102008.41;;;18.31;100.00
20909;BME280;10614;53.198;6.570;2023-06-22T04:05:39;101914.56;;;17.75;100.00
20909;BME280;10614;53.198;6.570;2023-06-22T04:07:43;101945.63;;;17.92;100.00
20909;BME280;10614;53.198;6.570;2023-06-22T04:09:46;101911.28;;;17.70;100.00
20909;BME280;10614;53.198;6.570;2023-06-22T04:12:25;102015.69;;;18.27;100.00
20909;BME280;10614;53.198;6.570;2023-06-22T04:17:44;101964.97;;;17.96;100.00
20909;BME280;10614;53.198;6.570;2023-06-22T04:19:46;101974.38;;;18.03;100.00
20909;BME280;10614;53.198;6.570;2023-06-22T04:21:50;101927.09;;;17.73;100.00
20909;BME280;10614;53.198;6.570;2023-06-22T04:23:52;102007.94;;;18.23;100.00
20909;BME280;10614;53.198;6.570;2023-06-22T04:25:59;101950.44;;;17.85;100.00
20909;BME280;10614;53.198;6.570;2023-06-22T04:28:08;102022.59;;;18.31;100.00
20909;BME280;10614;53.198;6.570;2023-06-22T04:30:15;101981.09;;;18.10;100.00
20909;BME280;10614;53.198;6.570;2023-06-22T04:32:35;101945.72;;;17.90;100.00
20909;BME280;10614;53.198;6.570;2023-06-22T04:34:37;102017.78;;;18.38;100.00
20909;BME280;10614;53.198;6.570;2023-06-22T04:36:41;101899.59;;;17.72;100.00
20909;BME280;10614;53.198;6.570;2023-06-22T04:38:52;101920.09;;;17.88;100.00
20909;BME280;10614;53.198;6.570;2023-06-22T04:40:58;101932.94;;;17.97;100.00
20909;BME280;10614;53.198;6.570;2023-06-22T04:43:06;101955.06;;;18.15;100.00
20909;BME280;10614;53.198;6.570;2023-06-22T04:45:42;101923.66;;;18.04;100.00
20909;BME280;10614;53.198;6.570;2023-06-22T04:48:15;102006.88;;;18.59;100.00
20909;BME280;10614;53.198;6.570;2023-06-22T04:50:18;101965.31;;;18.39;100.00
20909;BME280;10614;53.198;6.570;2023-06-22T04:52:21;101935.66;;;18.29;100.00
20909;BME280;10614;53.198;6.570;2023-06-22T04:54:26;101937.38;;;18.30;100.00
20909;BME280;10614;53.198;6.570;2023-06-22T04:56:28;101954.41;;;18.43;100.00
20909;BME280;10614;53.198;6.570;2023-06-22T04:58:31;101947.97;;;18.47;100.00
20909;BME280;10614;53.198;6.570;2023-06-22T05:00:36;101999.63;;;18.78;100.00
20909;BME280;10614;53.198;6.570;2023-06-22T05:02:56;101931.44;;;18.41;100.00
20909;BME280;10614;53.198;6.570;2023-06-22T05:05:06;101997.53;;;18.83;100.00
20909;BME280;10614;53.198;6.570;2023-06-22T05:07:08;101991.69;;;18.76;100.00
20909;BME280;10614;53.198;6.570;2023-06-22T05:09:12;101984.94;;;18.69;100.00
20909;BME280;10614;53.198;6.570;2023-06-22T05:11:39;101936.41;;;18.47;100.00
20909;BME280;10614;53.198;6.570;2023-06-22T05:13:41;102006.22;;;18.87;100.00
20909;BME280;10614;53.198;6.570;2023-06-22T05:15:43;101969.13;;;18.66;100.00
20909;BME280;10614;53.198;6.570;2023-06-22T05:17:49;101912.44;;;18.31;100.00
20909;BME280;10614;53.198;6.570;2023-06-22T05:19:52;101946.56;;;18.56;100.00
20909;BME280;10614;53.198;6.570;2023-06-22T05:21:57;101956.91;;;18.62;100.00
20909;BME280;10614;53.198;6.570;2023-06-22T05:24:27;101998.72;;;18.93;100.00
20909;BME280;10614;53.198;6.570;2023-06-22T05:26:32;101955.09;;;18.63;100.00
20909;BME280;10614;53.198;6.570;2023-06-22T05:28:39;101961.72;;;18.71;100.00
20909;BME280;10614;53.198;6.570;2023-06-22T05:31:16;101903.91;;;18.40;100.00
20909;BME280;10614;53.198;6.570;2023-06-22T05:33:55;102014.47;;;19.14;100.00
20909;BME280;10614;53.198;6.570;2023-06-22T05:35:57;101969.56;;;18.90;100.00
20909;BME280;10614;53.198;6.570;2023-06-22T05:37:59;101970.09;;;18.97;100.00
20909;BME280;10614;53.198;6.570;2023-06-22T05:40:01;101983.16;;;19.17;100.00
20909;BME280;10614;53.198;6.570;2023-06-22T05:42:20;101996.53;;;19.32;100.00
20909;BME280;10614;53.198;6.570;2023-06-22T05:47:03;101962.44;;;19.21;100.00
20909;BME280;10614;53.198;6.570;2023-06-22T05:49:16;101927.13;;;19.02;100.00
20909;BME280;10614;53.198;6.570;2023-06-22T05:51:47;102004.31;;;19.51;100.00
20909;BME280;10614;53.198;6.570;2023-06-22T05:54:14;101904.31;;;18.96;100.00
20909;BME280;10614;53.198;6.570;2023-06-22T05:56:43;101955.13;;;19.25;100.00
20909;BME280;10614;53.198;6.570;2023-06-22T05:58:47;101991.56;;;19.56;100.00
20909;BME280;10614;53.198;6.570;2023-06-22T06:01:07;101992.31;;;19.58;100.00
20909;BME280;10614;53.198;6.570;2023-06-22T06:06:14;101966.44;;;19.44;100.00
20909;BME280;10614;53.198;6.570;2023-06-22T06:08:42;102011.28;;;19.69;100.00
20909;BME280;10614;53.198;6.570;2023-06-22T06:11:26;102006.66;;;19.71;100.00
20909;BME280;10614;53.198;6.570;2023-06-22T06:13:43;101943.72;;;19.37;100.00
20909;BME280;10614;53.198;6.570;2023-06-22T06:18:35;102003.00;;;19.88;100.00
20909;BME280;10614;53.198;6.570;2023-06-22T06:20:48;102005.19;;;19.96;100.00
20909;BME280;10614;53.198;6.570;2023-06-22T06:23:17;102019.72;;;20.06;100.00
20909;BME280;10614;53.198;6.570;2023-06-22T06:25:22;102001.69;;;20.10;100.00
20909;BME280;10614;53.198;6.570;2023-06-22T06:27:44;101928.28;;;19.72;100.00
20909;BME280;10614;53.198;6.570;2023-06-22T06:30:15;102013.22;;;20.39;100.00
20909;BME280;10614;53.198;6.570;2023-06-22T06:32:47;101976.56;;;20.27;100.00
20909;BME280;10614;53.198;6.570;2023-06-22T06:34:51;101967.97;;;20.21;100.00
20909;BME280;10614;53.198;6.570;2023-06-22T06:37:07;101963.41;;;20.23;100.00
20909;BME280;10614;53.198;6.570;2023-06-22T06:42:20;101984.41;;;20.58;100.00
20909;BME280;10614;53.198;6.570;2023-06-22T06:44:43;101966.88;;;20.53;100.00
20909;BME280;10614;53.198;6.570;2023-06-22T06:46:46;101992.56;;;20.70;100.00
20909;BME280;10614;53.198;6.570;2023-06-22T06:49:08;102016.91;;;20.94;100.00
20909;BME280;10614;53.198;6.570;2023-06-22T06:51:24;101923.06;;;20.41;100.00
20909;BME280;10614;53.198;6.570;2023-06-22T06:53:29;102018.56;;;21.09;100.00
20909;BME280;10614;53.198;6.570;2023-06-22T06:55:32;102023.53;;;21.15;100.00
20909;BME280;10614;53.198;6.570;2023-06-22T06:57:34;102005.84;;;21.13;100.00
20909;BME280;10614;53.198;6.570;2023-06-22T06:59:54;102014.66;;;21.27;100.00
20909;BME280;10614;53.198;6.570;2023-06-22T07:02:17;102027.22;;;21.27;100.00
20909;BME280;10614;53.198;6.570;2023-06-22T07:04:33;102020.69;;;21.31;100.00
20909;BME280;10614;53.198;6.570;2023-06-22T07:12:40;101931.56;;;20.89;100.00
20909;BME280;10614;53.198;6.570;2023-06-22T07:15:02;101987.56;;;21.32;100.00
20909;BME280;10614;53.198;6.570;2023-06-22T07:23:23;102018.44;;;21.65;100.00
20909;BME280;10614;53.198;6.570;2023-06-22T07:25:45;101982.09;;;21.48;100.00
20909;BME280;10614;53.198;6.570;2023-06-22T07:28:02;101938.47;;;21.19;99.31
20909;BME280;10614;53.198;6.570;2023-06-22T07:30:13;101992.88;;;21.46;97.48
20909;BME280;10614;53.198;6.570;2023-06-22T07:32:38;102013.06;;;21.52;98.08
20909;BME280;10614;53.198;6.570;2023-06-22T07:35:08;102010.25;;;21.54;98.63
20909;BME280;10614;53.198;6.570;2023-06-22T07:37:21;101983.66;;;21.38;98.27
20909;BME280;10614;53.198;6.570;2023-06-22T07:42:43;102006.31;;;21.59;97.34
20909;BME280;10614;53.198;6.570;2023-06-22T07:48:37;102001.41;;;21.66;96.29
20909;BME280;10614;53.198;6.570;2023-06-22T07:50:45;101987.78;;;21.69;96.21
20909;BME280;10614;53.198;6.570;2023-06-22T07:53:02;101969.88;;;21.57;95.11
20909;BME280;10614;53.198;6.570;2023-06-22T07:55:23;101972.25;;;21.61;94.66
20909;BME280;10614;53.198;6.570;2023-06-22T08:00:28;101985.09;;;21.82;94.93
20909;BME280;10614;53.198;6.570;2023-06-22T08:05:54;101969.78;;;21.97;93.39
20909;BME280;10614;53.198;6.570;2023-06-22T08:08:32;101967.97;;;21.97;93.18
20909;BME280;10614;53.198;6.570;2023-06-22T08:11:04;101965.81;;;22.02;93.01
20909;BME280;10614;53.198;6.570;2023-06-22T08:13:20;101934.09;;;21.83;91.28
20909;BME280;10614;53.198;6.570;2023-06-22T08:15:27;101919.94;;;21.81;91.13
20909;BME280;10614;53.198;6.570;2023-06-22T08:17:58;101979.84;;;22.19;90.50
20909;BME280;10614;53.198;6.570;2023-06-22T08:20:14;101948.44;;;22.08;90.05
20909;BME280;10614;53.198;6.570;2023-06-22T08:22:17;101966.78;;;22.27;89.02
20909;BME280;10614;53.198;6.570;2023-06-22T08:24:19;101945.09;;;22.17;88.07
20909;BME280;10614;53.198;6.570;2023-06-22T08:26:22;101965.25;;;22.36;87.70
20909;BME280;10614;53.198;6.570;2023-06-22T08:31:37;101984.53;;;22.53;87.40
20909;BME280;10614;53.198;6.570;2023-06-22T08:33:46;101977.25;;;22.55;86.36
20909;BME280;10614;53.198;6.570;2023-06-22T08:36:12;101932.44;;;22.32;86.19
20909;BME280;10614;53.198;6.570;2023-06-22T08:41:17;101922.16;;;22.26;85.88
20909;BME280;10614;53.198;6.570;2023-06-22T08:44:07;101973.97;;;22.63;84.95
20909;BME280;10614;53.198;6.570;2023-06-22T08:46:53;101966.44;;;22.68;85.19
20909;BME280;10614;53.198;6.570;2023-06-22T08:51:43;101929.16;;;22.52;83.54
20909;BME280;10614;53.198;6.570;2023-06-22T08:54:31;101960.91;;;22.83;83.68
20909;BME280;10614;53.198;6.570;2023-06-22T08:57:32;101951.66;;;22.87;83.65
20909;BME280;10614;53.198;6.570;2023-06-22T09:05:34;101950.66;;;23.01;82.43
20909;BME280;10614;53.198;6.570;2023-06-22T09:07:50;101917.63;;;22.87;82.21
20909;BME280;10614;53.198;6.570;2023-06-22T09:10:10;101938.72;;;23.05;81.94
20909;BME280;10614;53.198;6.570;2023-06-22T09:15:18;101940.84;;;23.12;82.05
20909;BME280;10614;53.198;6.570;2023-06-22T09:17:36;101904.94;;;22.89;81.74
20909;BME280;10614;53.198;6.570;2023-06-22T09:19:52;101859.00;;;22.70;81.38
20909;BME280;10614;53.198;6.570;2023-06-22T09:21:56;101942.91;;;23.20;81.00
20909;BME280;10614;53.198;6.570;2023-06-22T09:24:33;101922.78;;;23.14;80.80
20909;BME280;10614;53.198;6.570;2023-06-22T09:29:42;101853.53;;;22.83;79.96
20909;BME280;10614;53.198;6.570;2023-06-22T09:31:59;101938.63;;;23.42;79.75
20909;BME280;10614;53.198;6.570;2023-06-22T09:34:02;101855.72;;;23.02;79.63
20909;BME280;10614;53.198;6.570;2023-06-22T09:40:02;101937.19;;;23.60;79.59
20909;BME280;10614;53.198;6.570;2023-06-22T09:42:04;101926.78;;;23.67;78.72
20909;BME280;10614;53.198;6.570;2023-06-22T09:44:41;101925.69;;;23.69;77.52
20909;BME280;10614;53.198;6.570;2023-06-22T09:47:10;101919.75;;;23.77;77.82
20909;BME280;10614;53.198;6.570;2023-06-22T09:49:57;101925.38;;;23.74;77.79
20909;BME280;10614;53.198;6.570;2023-06-22T09:51:56;101873.41;;;23.51;77.78
20909;BME280;10614;53.198;6.570;2023-06-22T09:54:11;101869.25;;;23.58;77.43
20909;BME280;10614;53.198;6.570;2023-06-22T09:56:43;101925.13;;;23.99;76.81
20909;BME280;10614;53.198;6.570;2023-06-22T09:59:22;101917.06;;;24.11;75.89
20909;BME280;10614;53.198;6.570;2023-06-22T10:04:51;101905.56;;;24.31;74.23
20909;BME280;10614;53.198;6.570;2023-06-22T10:09:31;101915.44;;;24.53;74.75
20909;BME280;10614;53.198;6.570;2023-06-22T10:11:51;101880.19;;;24.45;74.03
20909;BME280;10614;53.198;6.570;2023-06-22T10:13:56;101921.13;;;24.71;74.04
20909;BME280;10614;53.198;6.570;2023-06-22T10:16:18;101844.97;;;24.37;73.40
20909;BME280;10614;53.198;6.570;2023-06-22T10:18:20;101873.19;;;24.65;72.67
20909;BME280;10614;53.198;6.570;2023-06-22T10:20:27;101852.63;;;24.64;71.85
20909;BME280;10614;53.198;6.570;2023-06-22T10:22:31;101891.75;;;25.00;71.76
20909;BME280;10614;53.198;6.570;2023-06-22T10:24:33;101909.44;;;25.14;70.71
20909;BME280;10614;53.198;6.570;2023-06-22T10:26:39;101910.06;;;25.18;70.90
20909;BME280;10614;53.198;6.570;2023-06-22T10:29:11;101840.97;;;24.96;70.08
20909;BME280;10614;53.198;6.570;2023-06-22T10:31:14;101813.25;;;24.84;69.83
20909;BME280;10614;53.198;6.570;2023-06-22T10:33:19;101888.53;;;25.39;69.63
20909;BME280;10614;53.198;6.570;2023-06-22T10:35:23;101874.63;;;25.43;69.38
20909;BME280;10614;53.198;6.570;2023-06-22T10:40:14;101874.84;;;25.61;68.36
20909;BME280;10614;53.198;6.570;2023-06-22T10:42:20;101830.31;;;25.26;67.13
20909;BME280;10614;53.198;6.570;2023-06-22T10:44:31;101881.00;;;25.42;66.70
20909;BME280;10614;53.198;6.570;2023-06-22T10:46:51;101885.94;;;25.37;67.05
20909;BME280;10614;53.198;6.570;2023-06-22T10:48:54;101848.59;;;25.12;67.72
20909;BME280;10614;53.198;6.570;2023-06-22T10:50:59;101842.34;;;25.11;67.68
20909;BME280;10614;53.198;6.570;2023-06-22T10:53:00;101844.78;;;25.14;68.24
20909;BME280;10614;53.198;6.570;2023-06-22T10:55:07;101853.56;;;25.27;67.50
20909;BME280;10614;53.198;6.570;2023-06-22T10:57:26;101852.94;;;25.45;67.68
20909;BME280;10614;53.198;6.570;2023-06-22T10:59:28;101853.19;;;25.73;66.75
20909;BME280;10614;53.198;6.570;2023-06-22T11:01:31;101860.00;;;25.98;66.88
20909;BME280;10614;53.198;6.570;2023-06-22T11:03:39;101876.53;;;26.24;65.92
20909;BME280;10614;53.198;6.570;2023-06-22T11:06:02;101872.28;;;26.31;64.42
20909;BME280;10614;53.198;6.570;2023-06-22T11:08:48;101875.59;;;26.44;64.34
20909;BME280;10614;53.198;6.570;2023-06-22T11:11:34;101873.94;;;26.72;64.39
20909;BME280;10614;53.198;6.570;2023-06-22T11:13:55;101867.78;;;27.09;63.88
20909;BME280;10614;53.198;6.570;2023-06-22T11:18:47;101808.31;;;27.29;60.96
20909;BME280;10614;53.198;6.570;2023-06-22T11:21:12;101839.75;;;27.67;59.00
20909;BME280;10614;53.198;6.570;2023-06-22T11:25:41;101862.72;;;28.18;58.96
20909;BME280;10614;53.198;6.570;2023-06-22T11:27:49;101852.97;;;28.26;57.99
20909;BME280;10614;53.198;6.570;2023-06-22T11:30:01;101863.97;;;28.24;56.68
20909;BME280;10614;53.198;6.570;2023-06-22T11:32:09;101846.84;;;28.06;56.13
20909;BME280;10614;53.198;6.570;2023-06-22T11:34:12;101779.31;;;27.76;56.65
20909;BME280;10614;53.198;6.570;2023-06-22T11:36:36;101799.81;;;27.89;56.49
20909;BME280;10614;53.198;6.570;2023-06-22T11:38:52;101835.88;;;28.25;56.45
20909;BME280;10614;53.198;6.570;2023-06-22T11:40:54;101834.13;;;28.34;56.95
20909;BME280;10614;53.198;6.570;2023-06-22T11:42:56;101802.31;;;28.18;56.23
20909;BME280;10614;53.198;6.570;2023-06-22T11:44:58;101875.88;;;28.59;55.34
20909;BME280;10614;53.198;6.570;2023-06-22T11:47:00;101874.97;;;28.68;55.96
20909;BME280;10614;53.198;6.570;2023-06-22T11:49:04;101854.72;;;28.62;55.66
20909;BME280;10614;53.198;6.570;2023-06-22T11:51:12;101809.34;;;28.11;54.94
20909;BME280;10614;53.198;6.570;2023-06-22T11:53:35;101841.44;;;28.24;55.94
20909;BME280;10614;53.198;6.570;2023-06-22T11:55:38;101850.00;;;28.47;56.19
20909;BME280;10614;53.198;6.570;2023-06-22T12:00:29;101816.84;;;28.35;55.53
20909;BME280;10614;53.198;6.570;2023-06-22T12:02:45;101854.69;;;28.45;55.69
20909;BME280;10614;53.198;6.570;2023-06-22T12:04:49;101864.59;;;28.36;55.96
20909;BME280;10614;53.198;6.570;2023-06-22T12:06:53;101853.06;;;28.34;56.39
20909;BME280;10614;53.198;6.570;2023-06-22T12:09:06;101828.78;;;28.24;56.32
20909;BME280;10614;53.198;6.570;2023-06-22T12:11:15;101781.03;;;27.87;56.04
20909;BME280;10614;53.198;6.570;2023-06-22T12:13:18;101832.16;;;28.08;56.37
20909;BME280;10614;53.198;6.570;2023-06-22T12:15:20;101827.53;;;27.91;56.07
20909;BME280;10614;53.198;6.570;2023-06-22T12:17:23;101795.81;;;27.55;56.17
20909;BME280;10614;53.198;6.570;2023-06-22T12:19:26;101840.03;;;27.64;56.63
20909;BME280;10614;53.198;6.570;2023-06-22T12:21:36;101832.72;;;27.47;57.28
20909;BME280;10614;53.198;6.570;2023-06-22T12:24:06;101793.53;;;27.23;57.90
20909;BME280;10614;53.198;6.570;2023-06-22T12:26:09;101818.69;;;27.33;58.34
20909;BME280;10614;53.198;6.570;2023-06-22T12:28:11;101822.41;;;27.32;58.18
20909;BME280;10614;53.198;6.570;2023-06-22T12:35:43;101814.06;;;27.53;58.98
20909;BME280;10614;53.198;6.570;2023-06-22T12:37:45;101802.69;;;27.50;59.18
20909;BME280;10614;53.198;6.570;2023-06-22T12:40:03;101802.28;;;27.45;58.94
20909;BME280;10614;53.198;6.570;2023-06-22T12:42:15;101792.66;;;27.32;58.48
20909;BME280;10614;53.198;6.570;2023-06-22T12:44:17;101771.75;;;27.25;58.63
20909;BME280;10614;53.198;6.570;2023-06-22T12:46:19;101772.59;;;27.35;59.18
20909;BME280;10614;53.198;6.570;2023-06-22T12:48:23;101758.63;;;27.30;58.27
20909;BME280;10614;53.198;6.570;2023-06-22T12:50:25;101801.53;;;27.52;58.85
20909;BME280;10614;53.198;6.570;2023-06-22T12:52:31;101800.94;;;27.58;58.25
20909;BME280;10614;53.198;6.570;2023-06-22T12:54:36;101771.72;;;27.34;58.31
20909;BME280;10614;53.198;6.570;2023-06-22T12:56:39;101801.44;;;27.44;58.19
20909;BME280;10614;53.198;6.570;2023-06-22T12:58:42;101805.25;;;27.42;58.53
20909;BME280;10614;53.198;6.570;2023-06-22T13:00:44;101803.00;;;27.47;59.16
20909;BME280;10614;53.198;6.570;2023-06-22T13:03:05;101800.41;;;27.45;57.98
20909;BME280;10614;53.198;6.570;2023-06-22T13:05:14;101759.09;;;27.15;58.25
20909;BME280;10614;53.198;6.570;2023-06-22T13:07:26;101734.28;;;26.92;58.38
20909;BME280;10614;53.198;6.570;2023-06-22T13:09:54;101729.44;;;26.96;58.53
20909;BME280;10614;53.198;6.570;2023-06-22T13:11:59;101762.50;;;27.27;58.09
20909;BME280;10614;53.198;6.570;2023-06-22T13:14:10;101743.63;;;27.08;57.31
20909;BME280;10614;53.198;6.570;2023-06-22T13:16:12;101737.41;;;26.98;57.53
20909;BME280;10614;53.198;6.570;2023-06-22T13:18:14;101778.56;;;27.29;58.15
20909;BME280;10614;53.198;6.570;2023-06-22T13:20:16;101789.91;;;27.42;58.40
20909;BME280;10614;53.198;6.570;2023-06-22T13:22:32;101776.13;;;27.35;57.67
20909;BME280;10614;53.198;6.570;2023-06-22T13:24:40;101724.72;;;27.08;57.86
20909;BME280;10614;53.198;6.570;2023-06-22T13:26:42;101728.66;;;27.13;56.04
20909;BME280;10614;53.198;6.570;2023-06-22T13:28:54;101750.88;;;27.07;55.71
20909;BME280;10614;53.198;6.570;2023-06-22T13:30:56;101764.34;;;27.17;55.92
20909;BME280;10614;53.198;6.570;2023-06-22T13:32:58;101790.63;;;27.34;55.92
20909;BME280;10614;53.198;6.570;2023-06-22T13:35:00;101691.41;;;26.70;55.34
20909;BME280;10614;53.198;6.570;2023-06-22T13:37:09;101762.00;;;27.04;55.88